sensor_id;sensor_type;location;lat;lon;timestamp;P1;durP1;ratioP1;P2;durP2;ratioP2
34481;SDS011;20720;48.886;9.388;2023-05-10T00:02:16;0.82;;;0.50;;
34481;SDS011;20720;48.886;9.388;2023-05-10T00:04:42;1.30;;;0.80;;
34481;SDS011;20720;48.886;9.388;2023-05-10T00:07:07;1.20;;;0.70;;
34481;SDS011;20720;48.886;9.388;2023-05-10T00:09:33;1.00;;;0.60;;
34481;SDS011;20720;48.886;9.388;2023-05-10T00:11:58;1.20;;;0.60;;
34481;SDS011;20720;48.886;9.388;2023-05-10T00:14:23;2.75;;;0.98;;
34481;SDS011;20720;48.886;9.388;2023-05-10T00:16:49;2.40;;;0.80;;
34481;SDS011;20720;48.886;9.388;2023-05-10T00:19:14;1.70;;;0.80;;
34481;SDS011;20720;48.886;9.388;2023-05-10T00:21:39;2.40;;;0.90;;
34481;SDS011;20720;48.886;9.388;2023-05-10T00:24:05;1.30;;;0.60;;
34481;SDS011;20720;48.886;9.388;2023-05-10T00:26:30;1.35;;;0.57;;
34481;SDS011;20720;48.886;9.388;2023-05-10T00:28:55;1.00;;;0.50;;
34481;SDS011;20720;48.886;9.388;2023-05-10T00:31:21;1.58;;;0.50;;
34481;SDS011;20720;48.886;9.388;2023-05-10T00:33:47;1.80;;;0.30;;
34481;SDS011;20720;48.886;9.388;2023-05-10T00:36:12;0.68;;;0.30;;
34481;SDS011;20720;48.886;9.388;2023-05-10T00:38:37;4.70;;;0.40;;
34481;SDS011;20720;48.886;9.388;2023-05-10T00:41:03;1.05;;;0.08;;
34481;SDS011;20720;48.886;9.388;2023-05-10T00:43:28;0.73;;;0.20;;
34481;SDS011;20720;48.886;9.388;2023-05-10T00:45:53;0.68;;;0.20;;
34481;SDS011;20720;48.886;9.388;2023-05-10T00:48:19;0.40;;;0.15;;
34481;SDS011;20720;48.886;9.388;2023-05-10T00:50:45;0.85;;;0.20;;
34481;SDS011;20720;48.886;9.388;2023-05-10T00:53:10;0.00;;;0.00;;
34481;SDS011;20720;48.886;9.388;2023-05-10T00:55:35;1.45;;;0.20;;
34481;SDS011;20720;48.886;9.388;2023-05-10T00:58:01;0.40;;;0.10;;
34481;SDS011;20720;48.886;9.388;2023-05-10T01:00:26;1.55;;;0.10;;
34481;SDS011;20720;48.886;9.388;2023-05-10T01:02:53;0.20;;;0.10;;
34481;SDS011;20720;48.886;9.388;2023-05-10T01:05:18;0.30;;;0.10;;
34481;SDS011;20720;48.886;9.388;2023-05-10T01:07:44;0.25;;;0.10;;
34481;SDS011;20720;48.886;9.388;2023-05-10T01:10:09;0.20;;;0.10;;
34481;SDS011;20720;48.886;9.388;2023-05-10T01:12:37;0.25;;;0.20;;
34481;SDS011;20720;48.886;9.388;2023-05-10T01:15:05;0.70;;;0.25;;
34481;SDS011;20720;48.886;9.388;2023-05-10T01:17:33;0.25;;;0.20;;
34481;SDS011;20720;48.886;9.388;2023-05-10T01:20:01;0.30;;;0.20;;
34481;SDS011;20720;48.886;9.388;2023-05-10T01:36:25;0.50;;;0.30;;
34481;SDS011;20720;48.886;9.388;2023-05-10T01:38:58;0.47;;;0.28;;
34481;SDS011;20720;48.886;9.388;2023-05-10T01:44:49;0.43;;;0.30;;
34481;SDS011;20720;48.886;9.388;2023-05-10T01:46:58;0.70;;;0.40;;
34481;SDS011;20720;48.886;9.388;2023-05-10T01:49:32;0.80;;;0.40;;
34481;SDS011;20720;48.886;9.388;2023-05-10T01:52:04;1.35;;;0.40;;
34481;SDS011;20720;48.886;9.388;2023-05-10T01:54:37;1.02;;;0.60;;
34481;SDS011;20720;48.886;9.388;2023-05-10T01:57:06;0.90;;;0.40;;
34481;SDS011;20720;48.886;9.388;2023-05-10T01:59:37;0.90;;;0.47;;
34481;SDS011;20720;48.886;9.388;2023-05-10T02:02:06;1.00;;;0.52;;
34481;SDS011;20720;48.886;9.388;2023-05-10T02:04:36;1.92;;;0.80;;
34481;SDS011;20720;48.886;9.388;2023-05-10T02:07:03;0.90;;;0.68;;
34481;SDS011;20720;48.886;9.388;2023-05-10T02:09:30;1.08;;;0.73;;
34481;SDS011;20720;48.886;9.388;2023-05-10T02:11:58;1.13;;;0.73;;
34481;SDS011;20720;48.886;9.388;2023-05-10T02:14:25;1.45;;;1.00;;
34481;SDS011;20720;48.886;9.388;2023-05-10T02:16:52;1.30;;;1.00;;
34481;SDS011;20720;48.886;9.388;2023-05-10T02:19:20;1.50;;;0.90;;
34481;SDS011;20720;48.886;9.388;2023-05-10T02:21:47;1.38;;;1.00;;
34481;SDS011;20720;48.886;9.388;2023-05-10T02:24:16;0.98;;;0.70;;
34481;SDS011;20720;48.886;9.388;2023-05-10T02:26:42;1.50;;;0.85;;
34481;SDS011;20720;48.886;9.388;2023-05-10T02:29:10;1.17;;;0.70;;
34481;SDS011;20720;48.886;9.388;2023-05-10T02:31:37;1.75;;;0.93;;
34481;SDS011;20720;48.886;9.388;2023-05-10T02:34:03;2.15;;;1.00;;
34481;SDS011;20720;48.886;9.388;2023-05-10T02:36:31;1.63;;;1.08;;
34481;SDS011;20720;48.886;9.388;2023-05-10T02:38:57;1.30;;;0.88;;
34481;SDS011;20720;48.886;9.388;2023-05-10T02:41:25;1.20;;;0.80;;
34481;SDS011;20720;48.886;9.388;2023-05-10T02:43:51;1.52;;;0.93;;
34481;SDS011;20720;48.886;9.388;2023-05-10T02:46:22;2.60;;;0.80;;
34481;SDS011;20720;48.886;9.388;2023-05-10T02:48:48;1.55;;;1.08;;
34481;SDS011;20720;48.886;9.388;2023-05-10T02:51:13;1.42;;;1.00;;
34481;SDS011;20720;48.886;9.388;2023-05-10T02:53:43;6.35;;;1.08;;
34481;SDS011;20720;48.886;9.388;2023-05-10T02:56:15;1.83;;;1.10;;
34481;SDS011;20720;48.886;9.388;2023-05-10T02:58:49;1.60;;;1.10;;
34481;SDS011;20720;48.886;9.388;2023-05-10T03:01:15;3.05;;;1.10;;
34481;SDS011;20720;48.886;9.388;2023-05-10T03:03:40;1.63;;;1.20;;
34481;SDS011;20720;48.886;9.388;2023-05-10T03:06:05;2.17;;;1.38;;
34481;SDS011;20720;48.886;9.388;2023-05-10T03:08:31;1.88;;;1.40;;
34481;SDS011;20720;48.886;9.388;2023-05-10T03:16:27;1.40;;;1.00;;
34481;SDS011;20720;48.886;9.388;2023-05-10T03:19:06;2.10;;;1.00;;
34481;SDS011;20720;48.886;9.388;2023-05-10T03:21:40;1.52;;;1.08;;
34481;SDS011;20720;48.886;9.388;2023-05-10T03:24:09;4.13;;;1.00;;
34481;SDS011;20720;48.886;9.388;2023-05-10T03:26:37;1.40;;;1.00;;
34481;SDS011;20720;48.886;9.388;2023-05-10T03:29:04;2.85;;;0.90;;
34481;SDS011;20720;48.886;9.388;2023-05-10T03:31:31;1.50;;;0.90;;
34481;SDS011;20720;48.886;9.388;2023-05-10T03:33:56;1.70;;;1.17;;
34481;SDS011;20720;48.886;9.388;2023-05-10T03:36:22;1.70;;;1.10;;
34481;SDS011;20720;48.886;9.388;2023-05-10T03:38:47;1.17;;;0.80;;
34481;SDS011;20720;48.886;9.388;2023-05-10T03:41:12;1.58;;;0.90;;
34481;SDS011;20720;48.886;9.388;2023-05-10T03:43:37;3.97;;;0.88;;
34481;SDS011;20720;48.886;9.388;2023-05-10T03:46:04;2.67;;;0.98;;
34481;SDS011;20720;48.886;9.388;2023-05-10T03:48:30;3.30;;;0.90;;
34481;SDS011;20720;48.886;9.388;2023-05-10T03:50:55;2.08;;;1.23;;
34481;SDS011;20720;48.886;9.388;2023-05-10T03:53:20;1.60;;;0.98;;
34481;SDS011;20720;48.886;9.388;2023-05-10T03:55:46;1.42;;;1.00;;
34481;SDS011;20720;48.886;9.388;2023-05-10T03:58:11;2.67;;;1.15;;
34481;SDS011;20720;48.886;9.388;2023-05-10T04:00:37;1.52;;;1.05;;
34481;SDS011;20720;48.886;9.388;2023-05-10T04:03:02;1.80;;;1.10;;
34481;SDS011;20720;48.886;9.388;2023-05-10T04:05:28;1.48;;;1.00;;
34481;SDS011;20720;48.886;9.388;2023-05-10T04:07:54;3.60;;;1.10;;
34481;SDS011;20720;48.886;9.388;2023-05-10T04:10:19;1.60;;;1.30;;
34481;SDS011;20720;48.886;9.388;2023-05-10T04:12:45;1.48;;;1.20;;
34481;SDS011;20720;48.886;9.388;2023-05-10T04:15:10;1.83;;;1.30;;
34481;SDS011;20720;48.886;9.388;2023-05-10T04:17:36;2.20;;;1.60;;
34481;SDS011;20720;48.886;9.388;2023-05-10T04:20:02;4.70;;;1.75;;
34481;SDS011;20720;48.886;9.388;2023-05-10T04:22:28;1.67;;;1.20;;
34481;SDS011;20720;48.886;9.388;2023-05-10T04:24:54;2.10;;;1.52;;
34481;SDS011;20720;48.886;9.388;2023-05-10T04:27:19;2.42;;;1.88;;
34481;SDS011;20720;48.886;9.388;2023-05-10T04:29:44;2.40;;;1.50;;
34481;SDS011;20720;48.886;9.388;2023-05-10T04:32:10;4.10;;;2.00;;
34481;SDS011;20720;48.886;9.388;2023-05-10T04:34:35;3.08;;;2.05;;
34481;SDS011;20720;48.886;9.388;2023-05-10T04:37:01;2.63;;;1.70;;
34481;SDS011;20720;48.886;9.388;2023-05-10T04:39:26;3.25;;;2.15;;
34481;SDS011;20720;48.886;9.388;2023-05-10T04:41:51;5.30;;;2.45;;
34481;SDS011;20720;48.886;9.388;2023-05-10T04:44:17;2.83;;;2.33;;
34481;SDS011;20720;48.886;9.388;2023-05-10T04:46:42;3.17;;;2.05;;
34481;SDS011;20720;48.886;9.388;2023-05-10T04:49:07;3.75;;;2.08;;
34481;SDS011;20720;48.886;9.388;2023-05-10T04:51:32;5.93;;;2.50;;
34481;SDS011;20720;48.886;9.388;2023-05-10T04:53:58;3.22;;;2.38;;
34481;SDS011;20720;48.886;9.388;2023-05-10T04:56:23;5.22;;;2.25;;
34481;SDS011;20720;48.886;9.388;2023-05-10T04:58:48;4.22;;;2.45;;
34481;SDS011;20720;48.886;9.388;2023-05-10T05:01:14;2.42;;;2.03;;
34481;SDS011;20720;48.886;9.388;2023-05-10T05:03:39;3.42;;;2.50;;
34481;SDS011;20720;48.886;9.388;2023-05-10T05:06:05;4.35;;;2.40;;
34481;SDS011;20720;48.886;9.388;2023-05-10T05:08:30;2.47;;;2.00;;
34481;SDS011;20720;48.886;9.388;2023-05-10T05:10:56;2.28;;;1.73;;
34481;SDS011;20720;48.886;9.388;2023-05-10T05:13:21;5.20;;;2.20;;
34481;SDS011;20720;48.886;9.388;2023-05-10T05:15:46;6.38;;;2.08;;
34481;SDS011;20720;48.886;9.388;2023-05-10T05:18:12;2.65;;;2.15;;
34481;SDS011;20720;48.886;9.388;2023-05-10T05:20:37;3.42;;;2.13;;
34481;SDS011;20720;48.886;9.388;2023-05-10T05:23:02;3.67;;;2.08;;
34481;SDS011;20720;48.886;9.388;2023-05-10T05:25:28;2.80;;;1.63;;
34481;SDS011;20720;48.886;9.388;2023-05-10T05:27:53;2.10;;;1.65;;
34481;SDS011;20720;48.886;9.388;2023-05-10T05:30:18;2.90;;;2.05;;
34481;SDS011;20720;48.886;9.388;2023-05-10T05:32:44;2.58;;;1.58;;
34481;SDS011;20720;48.886;9.388;2023-05-10T05:35:09;3.42;;;1.40;;
34481;SDS011;20720;48.886;9.388;2023-05-10T05:37:34;2.50;;;2.00;;
34481;SDS011;20720;48.886;9.388;2023-05-10T05:40:00;2.55;;;1.95;;
34481;SDS011;20720;48.886;9.388;2023-05-10T05:42:26;3.45;;;2.00;;
34481;SDS011;20720;48.886;9.388;2023-05-10T05:44:51;4.82;;;2.10;;
34481;SDS011;20720;48.886;9.388;2023-05-10T05:47:17;4.13;;;2.17;;
34481;SDS011;20720;48.886;9.388;2023-05-10T05:49:42;3.15;;;2.22;;
34481;SDS011;20720;48.886;9.388;2023-05-10T05:52:10;2.33;;;1.88;;
34481;SDS011;20720;48.886;9.388;2023-05-10T05:54:35;5.28;;;1.98;;
34481;SDS011;20720;48.886;9.388;2023-05-10T05:57:01;3.55;;;2.40;;
34481;SDS011;20720;48.886;9.388;2023-05-10T05:59:26;3.03;;;1.80;;
34481;SDS011;20720;48.886;9.388;2023-05-10T06:01:51;3.25;;;2.05;;
34481;SDS011;20720;48.886;9.388;2023-05-10T06:04:17;2.47;;;1.88;;
34481;SDS011;20720;48.886;9.388;2023-05-10T06:06:43;4.03;;;2.05;;
34481;SDS011;20720;48.886;9.388;2023-05-10T06:09:09;4.57;;;2.30;;
34481;SDS011;20720;48.886;9.388;2023-05-10T06:11:35;2.67;;;2.30;;
34481;SDS011;20720;48.886;9.388;2023-05-10T06:14:01;2.60;;;1.92;;
34481;SDS011;20720;48.886;9.388;2023-05-10T06:16:29;3.00;;;2.50;;
34481;SDS011;20720;48.886;9.388;2023-05-10T06:18:54;4.88;;;1.90;;
34481;SDS011;20720;48.886;9.388;2023-05-10T06:21:20;2.85;;;2.17;;
34481;SDS011;20720;48.886;9.388;2023-05-10T06:23:45;2.95;;;2.20;;
34481;SDS011;20720;48.886;9.388;2023-05-10T06:26:10;3.05;;;2.28;;
34481;SDS011;20720;48.886;9.388;2023-05-10T06:28:36;3.80;;;2.20;;
34481;SDS011;20720;48.886;9.388;2023-05-10T06:31:03;3.40;;;1.88;;
34481;SDS011;20720;48.886;9.388;2023-05-10T06:33:28;3.05;;;2.47;;
34481;SDS011;20720;48.886;9.388;2023-05-10T06:35:54;5.20;;;2.50;;
34481;SDS011;20720;48.886;9.388;2023-05-10T06:38:19;5.88;;;2.38;;
34481;SDS011;20720;48.886;9.388;2023-05-10T06:40:44;6.00;;;2.10;;
34481;SDS011;20720;48.886;9.388;2023-05-10T06:43:10;4.05;;;2.60;;
34481;SDS011;20720;48.886;9.388;2023-05-10T06:45:35;2.22;;;1.75;;
34481;SDS011;20720;48.886;9.388;2023-05-10T06:48:00;4.78;;;2.20;;
34481;SDS011;20720;48.886;9.388;2023-05-10T06:50:26;3.53;;;2.13;;
34481;SDS011;20720;48.886;9.388;2023-05-10T06:52:51;2.75;;;2.20;;
34481;SDS011;20720;48.886;9.388;2023-05-10T06:55:16;3.75;;;2.75;;
34481;SDS011;20720;48.886;9.388;2023-05-10T06:57:42;2.75;;;2.17;;
34481;SDS011;20720;48.886;9.388;2023-05-10T07:00:07;2.35;;;1.90;;
34481;SDS011;20720;48.886;9.388;2023-05-10T07:02:34;2.60;;;1.90;;
34481;SDS011;20720;48.886;9.388;2023-05-10T07:04:59;2.58;;;2.10;;
34481;SDS011;20720;48.886;9.388;2023-05-10T07:07:25;3.95;;;2.28;;
34481;SDS011;20720;48.886;9.388;2023-05-10T07:09:50;3.80;;;1.90;;
34481;SDS011;20720;48.886;9.388;2023-05-10T07:12:16;3.15;;;1.58;;
34481;SDS011;20720;48.886;9.388;2023-05-10T07:14:41;4.32;;;1.73;;
34481;SDS011;20720;48.886;9.388;2023-05-10T07:17:07;2.25;;;1.60;;
34481;SDS011;20720;48.886;9.388;2023-05-10T07:19:32;2.53;;;1.80;;
34481;SDS011;20720;48.886;9.388;2023-05-10T07:21:58;3.55;;;1.67;;
34481;SDS011;20720;48.886;9.388;2023-05-10T07:24:23;4.18;;;1.70;;
34481;SDS011;20720;48.886;9.388;2023-05-10T07:26:49;2.80;;;1.60;;
34481;SDS011;20720;48.886;9.388;2023-05-10T07:29:14;4.38;;;1.90;;
34481;SDS011;20720;48.886;9.388;2023-05-10T07:31:39;1.95;;;1.38;;
34481;SDS011;20720;48.886;9.388;2023-05-10T07:34:06;1.98;;;0.90;;
34481;SDS011;20720;48.886;9.388;2023-05-10T07:36:32;3.60;;;1.50;;
34481;SDS011;20720;48.886;9.388;2023-05-10T07:38:57;1.98;;;1.02;;
34481;SDS011;20720;48.886;9.388;2023-05-10T07:41:22;2.28;;;1.10;;
34481;SDS011;20720;48.886;9.388;2023-05-10T07:43:48;1.95;;;1.15;;
34481;SDS011;20720;48.886;9.388;2023-05-10T07:46:13;2.72;;;1.27;;
34481;SDS011;20720;48.886;9.388;2023-05-10T07:48:39;2.15;;;1.00;;
34481;SDS011;20720;48.886;9.388;2023-05-10T07:51:04;1.58;;;0.90;;
34481;SDS011;20720;48.886;9.388;2023-05-10T07:53:31;2.67;;;0.90;;
34481;SDS011;20720;48.886;9.388;2023-05-10T07:55:57;1.45;;;0.88;;
34481;SDS011;20720;48.886;9.388;2023-05-10T07:58:23;3.35;;;0.82;;
34481;SDS011;20720;48.886;9.388;2023-05-10T08:00:49;1.63;;;0.80;;
34481;SDS011;20720;48.886;9.388;2023-05-10T08:03:14;2.70;;;0.90;;
34481;SDS011;20720;48.886;9.388;2023-05-10T08:05:39;2.00;;;0.77;;
34481;SDS011;20720;48.886;9.388;2023-05-10T08:08:05;1.40;;;0.60;;
34481;SDS011;20720;48.886;9.388;2023-05-10T08:10:31;1.55;;;0.70;;
34481;SDS011;20720;48.886;9.388;2023-05-10T08:12:56;2.35;;;0.85;;
34481;SDS011;20720;48.886;9.388;2023-05-10T08:15:23;1.42;;;0.60;;
34481;SDS011;20720;48.886;9.388;2023-05-10T08:17:48;1.48;;;0.68;;
34481;SDS011;20720;48.886;9.388;2023-05-10T08:20:13;1.52;;;0.75;;
34481;SDS011;20720;48.886;9.388;2023-05-10T08:22:41;2.13;;;0.80;;
34481;SDS011;20720;48.886;9.388;2023-05-10T08:25:07;1.83;;;0.75;;
34481;SDS011;20720;48.886;9.388;2023-05-10T08:27:32;1.48;;;0.70;;
34481;SDS011;20720;48.886;9.388;2023-05-10T08:29:57;1.42;;;0.45;;
34481;SDS011;20720;48.886;9.388;2023-05-10T08:32:23;1.63;;;0.75;;
34481;SDS011;20720;48.886;9.388;2023-05-10T08:34:48;4.35;;;1.10;;
34481;SDS011;20720;48.886;9.388;2023-05-10T08:37:13;3.45;;;1.08;;
34481;SDS011;20720;48.886;9.388;2023-05-10T08:39:38;2.47;;;1.10;;
34481;SDS011;20720;48.886;9.388;2023-05-10T08:42:04;2.78;;;0.70;;
34481;SDS011;20720;48.886;9.388;2023-05-10T08:44:33;1.70;;;0.80;;
34481;SDS011;20720;48.886;9.388;2023-05-10T08:47:02;2.17;;;0.60;;
34481;SDS011;20720;48.886;9.388;2023-05-10T08:49:31;1.20;;;0.45;;
34481;SDS011;20720;48.886;9.388;2023-05-10T08:51:57;2.55;;;0.47;;
34481;SDS011;20720;48.886;9.388;2023-05-10T08:54:26;1.67;;;0.35;;
34481;SDS011;20720;48.886;9.388;2023-05-10T08:56:52;0.68;;;0.35;;
34481;SDS011;20720;48.886;9.388;2023-05-10T08:59:18;1.52;;;0.35;;
34481;SDS011;20720;48.886;9.388;2023-05-10T09:01:44;1.17;;;0.32;;
34481;SDS011;20720;48.886;9.388;2023-05-10T09:04:10;0.80;;;0.38;;
34481;SDS011;20720;48.886;9.388;2023-05-10T09:06:36;0.43;;;0.30;;
34481;SDS011;20720;48.886;9.388;2023-05-10T09:09:02;1.50;;;0.28;;
34481;SDS011;20720;48.886;9.388;2023-05-10T09:11:28;0.93;;;0.28;;
34481;SDS011;20720;48.886;9.388;2023-05-10T09:13:54;1.95;;;0.28;;
34481;SDS011;20720;48.886;9.388;2023-05-10T09:16:21;0.80;;;0.30;;
34481;SDS011;20720;48.886;9.388;2023-05-10T09:18:47;1.10;;;0.30;;
34481;SDS011;20720;48.886;9.388;2023-05-10T09:21:12;1.42;;;0.30;;
34481;SDS011;20720;48.886;9.388;2023-05-10T09:23:38;0.90;;;0.17;;
34481;SDS011;20720;48.886;9.388;2023-05-10T09:26:08;2.55;;;0.30;;
34481;SDS011;20720;48.886;9.388;2023-05-10T09:28:33;1.15;;;0.73;;
34481;SDS011;20720;48.886;9.388;2023-05-10T09:30:59;0.80;;;0.28;;
34481;SDS011;20720;48.886;9.388;2023-05-10T09:33:25;0.68;;;0.38;;
34481;SDS011;20720;48.886;9.388;2023-05-10T09:35:51;0.80;;;0.40;;
34481;SDS011;20720;48.886;9.388;2023-05-10T09:38:17;0.50;;;0.30;;
34481;SDS011;20720;48.886;9.388;2023-05-10T09:40:42;0.95;;;0.20;;
34481;SDS011;20720;48.886;9.388;2023-05-10T09:43:19;0.88;;;0.40;;
34481;SDS011;20720;48.886;9.388;2023-05-10T09:45:45;0.80;;;0.20;;
34481;SDS011;20720;48.886;9.388;2023-05-10T09:48:14;0.80;;;0.30;;
34481;SDS011;20720;48.886;9.388;2023-05-10T09:50:39;1.95;;;0.20;;
34481;SDS011;20720;48.886;9.388;2023-05-10T09:53:05;0.65;;;0.20;;
34481;SDS011;20720;48.886;9.388;2023-05-10T09:55:41;0.40;;;0.17;;
34481;SDS011;20720;48.886;9.388;2023-05-10T09:58:09;1.08;;;0.20;;
34481;SDS011;20720;48.886;9.388;2023-05-10T10:00:45;0.90;;;0.20;;
34481;SDS011;20720;48.886;9.388;2023-05-10T10:03:17;0.82;;;0.15;;
34481;SDS011;20720;48.886;9.388;2023-05-10T10:05:44;0.28;;;0.20;;
34481;SDS011;20720;48.886;9.388;2023-05-10T10:08:11;1.15;;;0.30;;
34481;SDS011;20720;48.886;9.388;2023-05-10T10:10:37;0.32;;;0.20;;
34481;SDS011;20720;48.886;9.388;2023-05-10T10:13:06;1.02;;;0.38;;
34481;SDS011;20720;48.886;9.388;2023-05-10T10:15:32;0.82;;;0.20;;
34481;SDS011;20720;48.886;9.388;2023-05-10T10:17:58;1.15;;;0.30;;
34481;SDS011;20720;48.886;9.388;2023-05-10T10:20:25;0.95;;;0.25;;
34481;SDS011;20720;48.886;9.388;2023-05-10T10:22:51;0.65;;;0.30;;
34481;SDS011;20720;48.886;9.388;2023-05-10T10:25:16;1.45;;;0.30;;
34481;SDS011;20720;48.886;9.388;2023-05-10T10:35:39;2.67;;;0.40;;
34481;SDS011;20720;48.886;9.388;2023-05-10T10:38:05;0.68;;;0.20;;
34481;SDS011;20720;48.886;9.388;2023-05-10T10:40:33;1.67;;;0.40;;
34481;SDS011;20720;48.886;9.388;2023-05-10T10:43:20;4.00;;;0.30;;
34481;SDS011;20720;48.886;9.388;2023-05-10T10:48:37;0.30;;;0.20;;
34481;SDS011;20720;48.886;9.388;2023-05-10T10:51:02;0.68;;;0.20;;
34481;SDS011;20720;48.886;9.388;2023-05-10T10:53:28;0.70;;;0.30;;
34481;SDS011;20720;48.886;9.388;2023-05-10T10:56:12;3.33;;;0.40;;
34481;SDS011;20720;48.886;9.388;2023-05-10T10:58:39;1.23;;;0.30;;
34481;SDS011;20720;48.886;9.388;2023-05-10T11:01:09;1.30;;;0.50;;
34481;SDS011;20720;48.886;9.388;2023-05-10T11:03:36;0.82;;;0.22;;
34481;SDS011;20720;48.886;9.388;2023-05-10T11:06:01;1.85;;;0.30;;
34481;SDS011;20720;48.886;9.388;2023-05-10T11:08:31;4.47;;;0.40;;
34481;SDS011;20720;48.886;9.388;2023-05-10T11:15:54;0.43;;;0.20;;
34481;SDS011;20720;48.886;9.388;2023-05-10T11:18:26;2.65;;;0.52;;
34481;SDS011;20720;48.886;9.388;2023-05-10T11:20:57;0.43;;;0.20;;
34481;SDS011;20720;48.886;9.388;2023-05-10T11:23:29;0.50;;;0.20;;
34481;SDS011;20720;48.886;9.388;2023-05-10T11:25:56;0.85;;;0.20;;
34481;SDS011;20720;48.886;9.388;2023-05-10T11:28:21;0.75;;;0.30;;
34481;SDS011;20720;48.886;9.388;2023-05-10T11:30:46;0.50;;;0.20;;
34481;SDS011;20720;48.886;9.388;2023-05-10T11:33:18;2.08;;;0.30;;
34481;SDS011;20720;48.886;9.388;2023-05-10T11:35:44;0.90;;;0.35;;
34481;SDS011;20720;48.886;9.388;2023-05-10T11:38:11;1.63;;;0.30;;
34481;SDS011;20720;48.886;9.388;2023-05-10T11:40:37;2.10;;;0.50;;
34481;SDS011;20720;48.886;9.388;2023-05-10T11:43:03;3.88;;;0.38;;
34481;SDS011;20720;48.886;9.388;2023-05-10T11:45:31;0.57;;;0.28;;
34481;SDS011;20720;48.886;9.388;2023-05-10T11:47:58;1.63;;;0.57;;
34481;SDS011;20720;48.886;9.388;2023-05-10T11:50:24;3.45;;;0.47;;
34481;SDS011;20720;48.886;9.388;2023-05-10T11:52:54;1.15;;;0.30;;
34481;SDS011;20720;48.886;9.388;2023-05-10T11:55:21;0.80;;;0.20;;
34481;SDS011;20720;48.886;9.388;2023-05-10T11:57:47;1.83;;;0.40;;
34481;SDS011;20720;48.886;9.388;2023-05-10T12:00:16;1.20;;;0.38;;
34481;SDS011;20720;48.886;9.388;2023-05-10T12:02:41;1.08;;;0.40;;
34481;SDS011;20720;48.886;9.388;2023-05-10T12:05:07;1.98;;;0.50;;
34481;SDS011;20720;48.886;9.388;2023-05-10T12:07:33;2.45;;;0.70;;
34481;SDS011;20720;48.886;9.388;2023-05-10T12:10:17;1.90;;;0.60;;
34481;SDS011;20720;48.886;9.388;2023-05-10T12:12:51;2.88;;;0.70;;
34481;SDS011;20720;48.886;9.388;2023-05-10T12:15:18;1.33;;;0.50;;
34481;SDS011;20720;48.886;9.388;2023-05-10T12:17:45;2.13;;;0.50;;
34481;SDS011;20720;48.886;9.388;2023-05-10T12:22:44;3.87;;;0.47;;
34481;SDS011;20720;48.886;9.388;2023-05-10T12:25:14;11.05;;;9.27;;
34481;SDS011;20720;48.886;9.388;2023-05-10T12:27:39;3.35;;;1.67;;
34481;SDS011;20720;48.886;9.388;2023-05-10T12:30:06;2.15;;;1.30;;
34481;SDS011;20720;48.886;9.388;2023-05-10T12:32:39;1.45;;;0.93;;
34481;SDS011;20720;48.886;9.388;2023-05-10T12:37:30;1.92;;;0.70;;
34481;SDS011;20720;48.886;9.388;2023-05-10T12:39:55;2.53;;;0.90;;
34481;SDS011;20720;48.886;9.388;2023-05-10T12:42:21;4.27;;;0.90;;
34481;SDS011;20720;48.886;9.388;2023-05-10T12:44:46;1.42;;;0.50;;
34481;SDS011;20720;48.886;9.388;2023-05-10T12:47:11;1.75;;;0.60;;
34481;SDS011;20720;48.886;9.388;2023-05-10T12:49:37;1.85;;;0.80;;
34481;SDS011;20720;48.886;9.388;2023-05-10T12:52:03;2.10;;;0.60;;
34481;SDS011;20720;48.886;9.388;2023-05-10T12:54:28;1.92;;;0.60;;
34481;SDS011;20720;48.886;9.388;2023-05-10T12:56:53;2.55;;;0.73;;
34481;SDS011;20720;48.886;9.388;2023-05-10T12:59:19;1.58;;;0.55;;
34481;SDS011;20720;48.886;9.388;2023-05-10T13:01:44;2.47;;;0.60;;
34481;SDS011;20720;48.886;9.388;2023-05-10T13:04:11;1.88;;;0.50;;
34481;SDS011;20720;48.886;9.388;2023-05-10T13:06:37;0.85;;;0.30;;
34481;SDS011;20720;48.886;9.388;2023-05-10T13:09:02;0.57;;;0.20;;
34481;SDS011;20720;48.886;9.388;2023-05-10T13:11:27;3.20;;;0.30;;
34481;SDS011;20720;48.886;9.388;2023-05-10T13:13:53;2.72;;;0.32;;
34481;SDS011;20720;48.886;9.388;2023-05-10T13:16:18;0.65;;;0.30;;
34481;SDS011;20720;48.886;9.388;2023-05-10T13:18:43;1.73;;;0.30;;
34481;SDS011;20720;48.886;9.388;2023-05-10T13:21:08;2.03;;;0.45;;
34481;SDS011;20720;48.886;9.388;2023-05-10T13:23:34;2.83;;;0.50;;
34481;SDS011;20720;48.886;9.388;2023-05-10T13:25:59;1.58;;;0.43;;
34481;SDS011;20720;48.886;9.388;2023-05-10T13:28:24;0.82;;;0.32;;
34481;SDS011;20720;48.886;9.388;2023-05-10T13:30:51;1.38;;;0.43;;
34481;SDS011;20720;48.886;9.388;2023-05-10T13:33:16;3.35;;;0.47;;
34481;SDS011;20720;48.886;9.388;2023-05-10T13:35:41;3.95;;;0.40;;
34481;SDS011;20720;48.886;9.388;2023-05-10T13:38:07;1.50;;;0.25;;
34481;SDS011;20720;48.886;9.388;2023-05-10T13:40:32;1.95;;;0.30;;
34481;SDS011;20720;48.886;9.388;2023-05-10T13:42:58;1.70;;;0.35;;
34481;SDS011;20720;48.886;9.388;2023-05-10T13:45:23;2.58;;;0.30;;
34481;SDS011;20720;48.886;9.388;2023-05-10T13:47:49;1.45;;;0.35;;
34481;SDS011;20720;48.886;9.388;2023-05-10T13:50:14;2.03;;;0.35;;
34481;SDS011;20720;48.886;9.388;2023-05-10T13:52:39;4.07;;;0.43;;
34481;SDS011;20720;48.886;9.388;2023-05-10T13:55:05;1.20;;;0.43;;
34481;SDS011;20720;48.886;9.388;2023-05-10T13:57:30;1.38;;;0.40;;
34481;SDS011;20720;48.886;9.388;2023-05-10T13:59:55;2.50;;;0.50;;
34481;SDS011;20720;48.886;9.388;2023-05-10T14:02:22;1.65;;;0.38;;
34481;SDS011;20720;48.886;9.388;2023-05-10T14:04:47;1.15;;;0.32;;
34481;SDS011;20720;48.886;9.388;2023-05-10T14:07:13;2.55;;;0.35;;
34481;SDS011;20720;48.886;9.388;2023-05-10T14:09:38;0.93;;;0.30;;
34481;SDS011;20720;48.886;9.388;2023-05-10T14:12:04;1.38;;;0.47;;
34481;SDS011;20720;48.886;9.388;2023-05-10T14:14:29;1.15;;;0.40;;
34481;SDS011;20720;48.886;9.388;2023-05-10T14:16:54;1.45;;;0.40;;
34481;SDS011;20720;48.886;9.388;2023-05-10T14:19:19;3.00;;;0.50;;
34481;SDS011;20720;48.886;9.388;2023-05-10T14:21:45;3.78;;;0.32;;
34481;SDS011;20720;48.886;9.388;2023-05-10T14:24:10;2.72;;;0.60;;
34481;SDS011;20720;48.886;9.388;2023-05-10T14:26:36;1.60;;;0.60;;
34481;SDS011;20720;48.886;9.388;2023-05-10T14:29:01;1.00;;;0.30;;
34481;SDS011;20720;48.886;9.388;2023-05-10T14:31:26;1.63;;;0.40;;
34481;SDS011;20720;48.886;9.388;2023-05-10T14:33:52;1.30;;;0.40;;
34481;SDS011;20720;48.886;9.388;2023-05-10T14:36:18;2.05;;;0.40;;
34481;SDS011;20720;48.886;9.388;2023-05-10T14:38:43;0.98;;;0.40;;
34481;SDS011;20720;48.886;9.388;2023-05-10T14:41:08;4.45;;;0.60;;
34481;SDS011;20720;48.886;9.388;2023-05-10T14:43:34;1.70;;;0.70;;
34481;SDS011;20720;48.886;9.388;2023-05-10T14:45:59;2.63;;;0.50;;
34481;SDS011;20720;48.886;9.388;2023-05-10T14:48:24;1.85;;;0.45;;
34481;SDS011;20720;48.886;9.388;2023-05-10T14:50:50;0.90;;;0.40;;
34481;SDS011;20720;48.886;9.388;2023-05-10T14:53:17;2.90;;;0.50;;
34481;SDS011;20720;48.886;9.388;2023-05-10T14:55:42;2.53;;;0.50;;
34481;SDS011;20720;48.886;9.388;2023-05-10T14:58:08;2.65;;;0.50;;
34481;SDS011;20720;48.886;9.388;2023-05-10T15:00:33;1.70;;;0.40;;
34481;SDS011;20720;48.886;9.388;2023-05-10T15:02:58;1.40;;;0.50;;
34481;SDS011;20720;48.886;9.388;2023-05-10T15:05:24;1.63;;;0.50;;
34481;SDS011;20720;48.886;9.388;2023-05-10T15:07:49;0.73;;;0.28;;
34481;SDS011;20720;48.886;9.388;2023-05-10T15:10:16;1.10;;;0.43;;
34481;SDS011;20720;48.886;9.388;2023-05-10T15:12:42;4.47;;;0.43;;
34481;SDS011;20720;48.886;9.388;2023-05-10T15:15:07;1.90;;;0.40;;
34481;SDS011;20720;48.886;9.388;2023-05-10T15:17:33;0.55;;;0.22;;
34481;SDS011;20720;48.886;9.388;2023-05-10T15:19:59;1.30;;;0.28;;
34481;SDS011;20720;48.886;9.388;2023-05-10T15:22:25;1.27;;;0.40;;
34481;SDS011;20720;48.886;9.388;2023-05-10T15:24:50;1.98;;;0.35;;
34481;SDS011;20720;48.886;9.388;2023-05-10T15:27:15;0.85;;;0.40;;